createdAt,value
2018-02-15T00:00:58.217Z,71.50
2018-02-15T00:03:24.628Z,70.70
2018-02-15T00:05:51.092Z,70.10
2018-02-15T00:08:17.592Z,69.30
2018-02-15T00:10:44.039Z,68.90
2018-02-15T00:13:10.456Z,68.10
2018-02-15T00:15:37.582Z,67.90
2018-02-15T00:18:04.005Z,68.70
2018-02-15T00:20:30.408Z,67.80
2018-02-15T00:22:56.855Z,67.90
2018-02-15T00:25:23.248Z,68.10
2018-02-15T00:27:50.396Z,68.30
2018-02-15T00:30:16.847Z,68.30
2018-02-15T00:32:43.244Z,68.00
2018-02-15T00:35:09.641Z,67.70
2018-02-15T00:37:36.337Z,67.60
2018-02-15T00:40:02.810Z,67.40
2018-02-15T00:42:29.220Z,67.20
2018-02-15T00:47:52.650Z,67.30
2018-02-15T00:50:19.007Z,67.30
2018-02-15T00:52:46.106Z,65.10
2018-02-15T00:55:12.560Z,65.70
2018-02-15T00:57:38.913Z,65.90
2018-02-15T01:00:05.317Z,65.80
2018-02-15T01:02:31.701Z,65.80
2018-02-15T01:04:58.835Z,64.90
2018-02-15T01:07:25.213Z,64.80
2018-02-15T01:09:51.598Z,64.80
2018-02-15T01:12:17.998Z,64.90
2018-02-15T01:14:44.383Z,65.10
2018-02-15T01:17:10.813Z,65.50
2018-02-15T01:19:37.239Z,65.50
2018-02-15T01:22:04.448Z,65.50
2018-02-15T01:24:30.879Z,65.70
2018-02-15T01:26:57.254Z,65.90
2018-02-15T01:29:23.611Z,65.50
2018-02-15T01:31:50.740Z,64.20
2018-02-15T01:34:17.857Z,64.40
2018-02-15T01:36:44.248Z,64.20
2018-02-15T01:39:11.436Z,64.60
2018-02-15T01:41:37.860Z,64.60
2018-02-15T01:44:04.237Z,64.60
2018-02-15T01:46:30.610Z,64.70
2018-02-15T01:48:56.995Z,65.60
2018-02-15T01:51:23.354Z,65.40
2018-02-15T01:53:50.536Z,66.10
2018-02-15T01:56:16.939Z,66.10
2018-02-15T01:58:43.404Z,66.30
2018-02-15T02:01:09.905Z,66.70
2018-02-15T02:03:37.088Z,66.80
2018-02-15T02:06:03.517Z,66.80
2018-02-15T02:08:29.956Z,67.20
2018-02-15T02:10:56.431Z,67.10
2018-02-15T02:13:22.861Z,67.50
2018-02-15T02:15:50.112Z,67.60
2018-02-15T02:18:16.556Z,67.60
2018-02-15T02:20:43.753Z,67.20
2018-02-15T02:23:10.207Z,67.20
2018-02-15T02:25:36.689Z,67.30
2018-02-15T02:28:03.117Z,67.50
2018-02-15T02:30:29.522Z,67.80
2018-02-15T02:32:55.968Z,67.80
2018-02-15T02:35:22.487Z,67.50
2018-02-15T02:37:49.032Z,66.40
2018-02-15T02:40:16.385Z,66.60
2018-02-15T02:42:43.026Z,66.60
2018-02-15T02:45:10.483Z,66.50
2018-02-15T02:47:37.220Z,66.50
2018-02-15T02:50:05.260Z,65.30
2018-02-15T02:52:31.805Z,65.10
2018-02-15T02:54:58.370Z,64.60
2018-02-15T02:57:25.118Z,64.70
2018-02-15T02:59:51.873Z,63.70
2018-02-15T03:02:18.596Z,63.40
2018-02-15T03:04:46.056Z,62.70
2018-02-15T03:07:12.799Z,62.70
2018-02-15T03:09:39.538Z,62.90
2018-02-15T03:12:06.258Z,62.90
2018-02-15T03:14:33.736Z,62.10
2018-02-15T03:17:01.273Z,62.20
2018-02-15T03:19:28.742Z,62.40
2018-02-15T03:21:55.580Z,62.30
2018-02-15T03:24:22.888Z,62.90
2018-02-15T03:26:49.566Z,62.80
2018-02-15T03:35:10.443Z,62.20
2018-02-15T03:37:36.855Z,62.40
2018-02-15T03:40:03.253Z,62.30
2018-02-15T03:42:30.423Z,62.50
2018-02-15T03:44:56.871Z,62.50
2018-02-15T03:47:23.262Z,61.80
2018-02-15T03:49:50.404Z,62.70
2018-02-15T03:52:17.563Z,62.20
2018-02-15T03:54:44.943Z,61.80
2018-02-15T03:57:11.339Z,61.70
2018-02-15T03:59:38.524Z,61.80
2018-02-15T04:02:04.969Z,61.80
2018-02-15T04:04:31.381Z,61.50
2018-02-15T04:06:57.802Z,61.20
2018-02-15T04:09:24.205Z,61.10
2018-02-15T04:11:50.666Z,60.70
2018-02-15T04:14:17.129Z,60.10
2018-02-15T04:16:43.597Z,59.80
2018-02-15T04:19:10.023Z,59.00
2018-02-15T04:21:36.569Z,58.70
2018-02-15T04:24:02.967Z,58.20
2018-02-15T04:26:29.395Z,57.60
2018-02-15T04:28:55.871Z,57.70
2018-02-15T04:31:23.048Z,56.80
2018-02-15T04:33:49.485Z,56.70
2018-02-15T04:36:16.701Z,57.20
2018-02-15T04:38:43.100Z,57.20
2018-02-15T04:41:09.546Z,57.80
2018-02-15T04:43:36.013Z,57.70
2018-02-15T04:46:02.407Z,57.50
2018-02-15T04:48:28.804Z,57.60
2018-02-15T04:50:55.184Z,57.80
2018-02-15T04:53:21.598Z,57.60
2018-02-15T04:55:52.652Z,58.70
2018-02-15T04:58:19.067Z,58.60
2018-02-15T05:00:46.229Z,59.40
2018-02-15T05:03:12.631Z,59.40
2018-02-15T05:05:39.024Z,61.10
2018-02-15T05:08:05.623Z,61.30
2018-02-15T05:10:32.062Z,60.20
2018-02-15T05:12:59.296Z,58.80
2018-02-15T05:15:26.495Z,58.40
2018-02-15T05:17:52.899Z,58.30
2018-02-15T05:20:19.336Z,58.30
2018-02-15T05:22:46.464Z,58.40
2018-02-15T05:25:12.927Z,58.30
2018-02-15T05:27:39.345Z,58.70
2018-02-15T05:30:06.587Z,58.60
2018-02-15T05:32:33.721Z,58.70
2018-02-15T05:35:00.949Z,59.00
2018-02-15T05:37:31.278Z,59.00
2018-02-15T05:39:57.670Z,59.30
2018-02-15T05:42:24.808Z,59.20
2018-02-15T05:44:51.245Z,59.10
2018-02-15T05:47:18.391Z,59.60
2018-02-15T05:49:45.549Z,59.50
2018-02-15T05:52:12.688Z,59.30
2018-02-15T05:54:39.088Z,59.30
2018-02-15T05:57:05.523Z,60.30
2018-02-15T05:59:31.947Z,58.70
2018-02-15T06:01:58.378Z,58.90
2018-02-15T06:04:24.793Z,58.40
2018-02-15T06:06:51.226Z,58.70
2018-02-15T06:09:17.663Z,59.10
2018-02-15T06:11:44.123Z,59.40
2018-02-15T06:14:10.554Z,59.40
2018-02-15T06:16:36.956Z,59.80
2018-02-15T06:19:03.445Z,60.40
2018-02-15T06:21:29.889Z,60.50
2018-02-15T06:23:56.320Z,59.60
2018-02-15T06:26:22.700Z,58.00
2018-02-15T06:28:49.130Z,58.10
2018-02-15T06:31:15.540Z,57.20
2018-02-15T06:33:42.689Z,57.70
2018-02-15T06:36:09.903Z,57.70
2018-02-15T06:38:36.391Z,57.70
2018-02-15T06:41:03.711Z,57.90
2018-02-15T06:43:30.178Z,57.40
2018-02-15T06:45:57.368Z,58.10
2018-02-15T06:48:23.794Z,58.00
2018-02-15T06:50:50.203Z,57.90
2018-02-15T06:53:16.586Z,57.80
2018-02-15T06:55:43.026Z,58.40
2018-02-15T06:58:09.453Z,58.80
2018-02-15T07:00:35.872Z,58.80
2018-02-15T07:03:02.244Z,58.80
2018-02-15T07:05:29.430Z,58.50
2018-02-15T07:07:55.945Z,58.50
2018-02-15T07:10:22.388Z,58.20
2018-02-15T07:12:48.834Z,58.40
2018-02-15T07:15:15.479Z,58.50
2018-02-15T07:17:41.873Z,58.80
2018-02-15T07:20:12.878Z,59.10
2018-02-15T07:22:39.296Z,59.00
2018-02-15T07:25:05.731Z,60.20
2018-02-15T07:27:32.183Z,59.30
2018-02-15T07:29:58.624Z,59.30
2018-02-15T07:32:25.008Z,59.10
2018-02-15T07:34:51.463Z,59.60
2018-02-15T07:37:17.909Z,59.10
2018-02-15T07:39:44.383Z,57.40
2018-02-15T07:42:11.533Z,56.70
2018-02-15T07:44:38.700Z,56.40
2018-02-15T07:47:07.537Z,56.30
2018-02-15T07:49:34.875Z,56.40
2018-02-15T07:52:01.337Z,56.30
2018-02-15T07:54:27.802Z,57.20
2018-02-15T07:56:55.112Z,57.50
2018-02-15T07:59:21.592Z,56.90
2018-02-15T08:01:48.777Z,57.50
2018-02-15T08:04:15.223Z,57.50
2018-02-15T08:06:41.657Z,57.80
2018-02-15T08:09:08.036Z,58.50
2018-02-15T08:11:35.208Z,58.70
2018-02-15T08:14:01.671Z,58.70
2018-02-15T08:16:28.111Z,59.30
2018-02-15T08:18:54.541Z,58.90
2018-02-15T08:21:20.964Z,59.00
2018-02-15T08:23:47.424Z,58.10
2018-02-15T08:26:13.851Z,58.20
2018-02-15T08:28:40.277Z,57.50
2018-02-15T08:31:07.456Z,57.50
2018-02-15T08:33:33.986Z,57.60
2018-02-15T08:36:01.279Z,56.30
2018-02-15T08:38:27.712Z,56.30
2018-02-15T08:40:54.915Z,55.00
2018-02-15T08:43:21.308Z,55.00
2018-02-15T08:45:48.451Z,55.50
2018-02-15T08:48:15.647Z,55.90
2018-02-15T08:50:42.062Z,55.20
2018-02-15T08:53:08.494Z,55.10
2018-02-15T08:55:34.893Z,53.40
2018-02-15T08:58:01.320Z,52.90
2018-02-15T09:00:27.744Z,52.70
2018-02-15T09:02:54.175Z,52.50
2018-02-15T09:05:20.600Z,53.30
2018-02-15T09:07:47.210Z,53.70
2018-02-15T09:10:13.642Z,54.20
2018-02-15T09:12:40.096Z,54.90
2018-02-15T09:15:06.528Z,55.40
2018-02-15T09:17:32.988Z,55.00
2018-02-15T09:19:59.445Z,55.10
2018-02-15T09:22:26.599Z,54.20
2018-02-15T09:24:53.751Z,54.00
2018-02-15T09:27:20.924Z,54.30
2018-02-15T09:29:47.337Z,54.20
2018-02-15T09:32:13.770Z,54.50
2018-02-15T09:34:40.167Z,54.50
2018-02-15T09:37:06.575Z,55.40
2018-02-15T09:39:33.008Z,55.40
2018-02-15T09:41:59.503Z,55.80
2018-02-15T09:44:25.892Z,56.10
2018-02-15T09:46:52.866Z,55.60
2018-02-15T09:49:19.316Z,55.80
2018-02-15T09:51:46.589Z,55.90
2018-02-15T09:54:13.003Z,55.90
2018-02-15T09:56:39.404Z,55.90
2018-02-15T09:59:05.824Z,55.70
2018-02-15T10:01:32.215Z,56.20
2018-02-15T10:03:59.378Z,56.50
2018-02-15T10:06:25.999Z,56.50
2018-02-15T10:08:53.176Z,56.90
2018-02-15T10:11:19.603Z,56.80
2018-02-15T10:13:46.044Z,56.90
2018-02-15T10:16:12.457Z,56.80
2018-02-15T10:18:42.830Z,57.00
2018-02-15T10:21:09.247Z,57.30
2018-02-15T10:23:35.693Z,57.60
2018-02-15T10:26:02.139Z,57.90
2018-02-15T10:28:28.566Z,58.10
2018-02-15T10:30:54.948Z,58.10
2018-02-15T10:33:22.099Z,60.30
2018-02-15T10:35:49.447Z,60.50
2018-02-15T10:38:15.885Z,60.50
2018-02-15T10:40:43.049Z,62.00
2018-02-15T10:43:09.476Z,61.80
2018-02-15T10:45:35.884Z,62.50
2018-02-15T10:48:02.484Z,63.10
2018-02-15T10:50:28.876Z,63.60
2018-02-15T10:52:56.065Z,65.40
2018-02-15T10:55:22.485Z,65.30
2018-02-15T10:57:48.924Z,66.00
2018-02-15T11:00:15.329Z,66.90
2018-02-15T11:02:42.564Z,68.70
2018-02-15T11:05:15.945Z,69.90
2018-02-15T11:07:42.384Z,69.90
2018-02-15T11:10:08.811Z,70.50
2018-02-15T11:12:35.273Z,71.50
2018-02-15T11:15:01.736Z,72.40
2018-02-15T11:17:28.137Z,73.50
2018-02-15T11:19:55.320Z,74.20
2018-02-15T11:22:21.720Z,74.10
2018-02-15T11:24:48.888Z,76.40
2018-02-15T11:27:16.054Z,76.20
2018-02-15T11:29:42.558Z,76.10
2018-02-15T11:32:09.119Z,76.40
2018-02-15T11:34:35.627Z,77.10
2018-02-15T11:37:02.071Z,77.40
2018-02-15T11:39:28.508Z,77.30
2018-02-15T11:41:55.675Z,78.20
2018-02-15T11:44:22.208Z,78.10
2018-02-15T11:46:48.611Z,78.10
2018-02-15T11:49:15.055Z,78.10
2018-02-15T11:51:42.225Z,78.80
2018-02-15T11:54:09.375Z,78.90
2018-02-15T11:56:35.796Z,78.80
2018-02-15T11:59:02.989Z,78.40
2018-02-15T12:01:29.403Z,78.30
2018-02-15T12:03:55.834Z,79.10
2018-02-15T12:06:22.239Z,78.90
2018-02-15T12:08:49.448Z,79.10
2018-02-15T12:11:15.871Z,78.20
2018-02-15T12:13:43.304Z,78.20
2018-02-15T12:16:10.427Z,77.60
2018-02-15T12:18:37.641Z,77.80
2018-02-15T12:21:04.056Z,77.60
2018-02-15T12:23:30.493Z,77.70
2018-02-15T12:25:56.915Z,78.40
2018-02-15T12:28:23.352Z,78.40
2018-02-15T12:30:49.776Z,78.30
2018-02-15T12:33:16.221Z,78.60
2018-02-15T12:35:42.664Z,78.70
2018-02-15T12:38:09.076Z,79.00
2018-02-15T12:40:35.519Z,79.00
2018-02-15T12:43:02.140Z,79.00
2018-02-15T12:45:29.308Z,80.10
2018-02-15T12:47:56.441Z,79.20
2018-02-15T12:50:23.603Z,79.40
2018-02-15T12:52:50.748Z,79.50
2018-02-15T12:55:17.891Z,79.90
2018-02-15T12:57:45.064Z,80.00
2018-02-15T13:00:11.455Z,80.00
2018-02-15T13:02:37.886Z,80.00
2018-02-15T13:05:04.321Z,79.90
2018-02-15T13:07:30.851Z,80.00
2018-02-15T13:09:57.260Z,80.00
2018-02-15T13:12:36.071Z,80.00
2018-02-15T13:15:02.556Z,79.70
2018-02-15T13:17:30.480Z,79.40
2018-02-15T13:20:07.787Z,79.30
2018-02-15T13:22:46.430Z,79.50
2018-02-15T13:25:12.867Z,79.90
2018-02-15T13:27:51.527Z,80.10
2018-02-15T13:30:18.705Z,80.90
2018-02-15T13:32:45.152Z,80.90
2018-02-15T13:35:11.564Z,81.30
2018-02-15T13:37:38.473Z,81.80
2018-02-15T13:40:04.912Z,81.90
2018-02-15T13:42:32.124Z,82.10
2018-02-15T13:44:58.707Z,82.00
2018-02-15T13:47:25.188Z,82.10
2018-02-15T13:49:51.589Z,82.50
2018-02-15T13:52:18.073Z,82.90
2018-02-15T13:54:44.476Z,82.50
2018-02-15T13:57:11.035Z,83.20
2018-02-15T13:59:37.463Z,82.70
2018-02-15T14:02:03.883Z,83.40
2018-02-15T14:04:30.291Z,83.50
2018-02-15T14:06:56.720Z,83.40
2018-02-15T14:09:23.153Z,84.10
2018-02-15T14:11:49.572Z,84.90
2018-02-15T14:14:16.012Z,85.40
2018-02-15T14:16:42.455Z,86.10
2018-02-15T14:19:08.890Z,85.60
2018-02-15T14:21:36.059Z,86.20
2018-02-15T14:24:02.457Z,86.20
2018-02-15T14:26:28.877Z,86.30
2018-02-15T14:28:56.872Z,86.70
2018-02-15T14:31:24.011Z,87.00
2018-02-15T14:33:51.199Z,87.40
2018-02-15T14:36:18.052Z,87.40
2018-02-15T14:38:45.330Z,87.80
2018-02-15T14:41:11.758Z,87.70
2018-02-15T14:43:38.188Z,87.60
2018-02-15T14:46:04.611Z,87.30
2018-02-15T14:48:31.012Z,87.50
2018-02-15T14:50:58.179Z,87.70
2018-02-15T14:53:24.614Z,87.60
2018-02-15T14:55:51.080Z,88.10
2018-02-15T14:58:17.495Z,88.30
2018-02-15T15:00:43.953Z,88.70
2018-02-15T15:03:10.386Z,88.70
2018-02-15T15:05:36.832Z,88.70
2018-02-15T15:08:03.254Z,88.70
2018-02-15T15:10:29.813Z,88.70
2018-02-15T15:12:56.227Z,88.70
2018-02-15T15:15:22.692Z,88.70
2018-02-15T15:17:49.876Z,88.70
2018-02-15T15:20:16.317Z,88.70
2018-02-15T15:22:42.711Z,88.70
2018-02-15T15:25:09.216Z,88.80
2018-02-15T15:27:35.615Z,88.70
2018-02-15T15:30:02.020Z,88.70
2018-02-15T15:32:29.582Z,89.30
2018-02-15T15:34:55.988Z,89.30
2018-02-15T15:37:22.404Z,89.60
2018-02-15T15:39:49.610Z,90.00
2018-02-15T15:42:16.790Z,90.00
2018-02-15T15:44:43.285Z,90.00
2018-02-15T15:47:10.454Z,90.40
2018-02-15T15:49:36.889Z,90.00
2018-02-15T15:52:03.369Z,90.20
2018-02-15T15:54:29.864Z,90.20
2018-02-15T15:56:56.360Z,90.30
2018-02-15T15:59:23.130Z,90.50
2018-02-15T16:01:50.292Z,90.60
2018-02-15T16:04:16.700Z,90.60
2018-02-15T16:06:43.847Z,91.20
2018-02-15T16:09:10.317Z,90.80
2018-02-15T16:11:36.891Z,91.30
2018-02-15T16:14:04.064Z,91.00
2018-02-15T16:16:30.500Z,91.00
2018-02-15T16:18:58.148Z,91.30
2018-02-15T16:21:25.340Z,91.30
2018-02-15T16:23:52.561Z,91.40
2018-02-15T16:26:18.928Z,91.40
2018-02-15T16:28:46.284Z,91.60
2018-02-15T16:31:13.447Z,91.70
2018-02-15T16:33:39.857Z,91.70
2018-02-15T16:36:07.115Z,91.80
2018-02-15T16:38:34.255Z,91.80
2018-02-15T16:41:00.731Z,91.80
2018-02-15T16:43:28.231Z,91.80
2018-02-15T16:45:58.620Z,91.80
2018-02-15T16:48:25.087Z,91.80
2018-02-15T16:50:51.492Z,91.80
2018-02-15T16:53:17.972Z,91.80
2018-02-15T16:55:45.140Z,91.60
2018-02-15T16:58:18.432Z,91.80
2018-02-15T17:00:50.720Z,91.80
2018-02-15T17:03:17.131Z,92.20
2018-02-15T17:05:50.585Z,91.90
2018-02-15T17:08:17.010Z,91.80
2018-02-15T17:10:43.426Z,91.90
2018-02-15T17:13:09.856Z,92.00
2018-02-15T17:15:36.275Z,92.00
2018-02-15T17:18:02.856Z,92.00
2018-02-15T17:20:29.316Z,92.00
2018-02-15T17:22:55.719Z,92.00
2018-02-15T17:25:26.068Z,92.00
2018-02-15T17:27:52.551Z,92.00
2018-02-15T17:30:19.134Z,92.10
2018-02-15T17:32:45.559Z,92.00
2018-02-15T17:35:12.032Z,92.10
2018-02-15T17:37:39.232Z,92.20
2018-02-15T17:40:05.675Z,92.20
2018-02-15T17:42:32.168Z,92.10
2018-02-15T17:44:58.653Z,92.10
2018-02-15T17:47:25.072Z,92.20
2018-02-15T17:49:51.555Z,92.20
2018-02-15T17:52:19.035Z,92.10
2018-02-15T17:54:46.343Z,92.20
2018-02-15T17:57:12.756Z,92.20
2018-02-15T17:59:39.175Z,92.30
2018-02-15T18:02:05.595Z,92.30
2018-02-15T18:04:36.052Z,92.30
2018-02-15T18:07:02.521Z,92.40
2018-02-15T18:09:29.011Z,92.40
2018-02-15T18:11:55.467Z,92.80
2018-02-15T18:14:21.941Z,92.50
2018-02-15T18:16:48.451Z,92.50
2018-02-15T18:19:17.005Z,92.60
2018-02-15T18:21:47.375Z,92.60
2018-02-15T18:24:15.457Z,92.80
2018-02-15T18:26:42.478Z,92.70
2018-02-15T18:29:09.022Z,92.80
2018-02-15T18:31:35.503Z,92.80
2018-02-15T18:34:02.089Z,92.80
2018-02-15T18:36:28.668Z,92.90
2018-02-15T18:38:55.980Z,92.90
2018-02-15T18:41:25.469Z,93.00
2018-02-15T18:43:53.651Z,92.90
2018-02-15T18:46:20.198Z,93.30
2018-02-15T18:48:47.393Z,93.00
2018-02-15T18:51:14.595Z,93.10
2018-02-15T18:53:41.048Z,93.10
2018-02-15T18:56:08.316Z,93.00
2018-02-15T18:58:35.512Z,93.00
2018-02-15T19:01:02.079Z,93.00
2018-02-15T19:03:29.297Z,93.20
2018-02-15T19:05:59.848Z,93.20
2018-02-15T19:08:26.399Z,93.20
2018-02-15T19:10:53.614Z,93.20
2018-02-15T19:13:21.213Z,93.20
2018-02-15T19:15:48.671Z,93.20
2018-02-15T19:18:15.187Z,93.20
2018-02-15T19:20:43.123Z,93.40
2018-02-15T19:23:10.248Z,93.30
2018-02-15T19:25:36.664Z,93.30
2018-02-15T19:28:03.172Z,93.30
2018-02-15T19:30:30.259Z,93.30
2018-02-15T19:32:56.667Z,93.30
2018-02-15T19:35:23.132Z,93.30
2018-02-15T19:37:49.567Z,93.30
2018-02-15T19:40:15.969Z,93.30
2018-02-15T19:42:42.679Z,93.30
2018-02-15T19:45:09.095Z,93.30
2018-02-15T19:47:36.306Z,93.30
2018-02-15T19:50:02.737Z,93.30
2018-02-15T19:52:29.151Z,93.30
2018-02-15T19:54:55.531Z,93.40
2018-02-15T19:57:21.941Z,93.40
2018-02-15T19:59:49.072Z,93.50
2018-02-15T20:02:15.468Z,93.50
2018-02-15T20:04:42.628Z,93.50
2018-02-15T20:07:09.031Z,93.50
2018-02-15T20:09:36.248Z,93.60
2018-02-15T20:12:02.668Z,93.50
2018-02-15T20:14:29.093Z,93.70
2018-02-15T20:16:55.515Z,93.70
2018-02-15T20:19:21.916Z,93.70
2018-02-15T20:21:48.363Z,93.70
2018-02-15T20:24:15.492Z,93.70
2018-02-15T20:26:48.056Z,93.70
2018-02-15T20:29:14.462Z,93.70
2018-02-15T20:31:40.860Z,93.70
2018-02-15T20:34:07.999Z,93.90
2018-02-15T20:36:34.526Z,93.80
2018-02-15T20:39:07.038Z,93.90
2018-02-15T20:41:34.207Z,94.00
2018-02-15T20:44:00.663Z,94.00
2018-02-15T20:46:27.072Z,93.90
2018-02-15T20:48:53.504Z,94.00
2018-02-15T20:54:28.750Z,94.00
2018-02-15T20:56:55.915Z,94.10
2018-02-15T20:59:22.333Z,94.00
2018-02-15T21:01:49.462Z,94.10
2018-02-15T21:04:15.893Z,94.00
2018-02-15T21:06:42.332Z,94.10
2018-02-15T21:09:08.772Z,94.20
2018-02-15T21:11:35.227Z,94.20
2018-02-15T21:14:01.627Z,94.20
2018-02-15T21:16:28.907Z,94.30
2018-02-15T21:18:56.027Z,94.20
2018-02-15T21:21:22.476Z,94.20
2018-02-15T21:23:48.869Z,94.20
2018-02-15T21:26:15.276Z,94.20
2018-02-15T21:28:41.750Z,94.10
2018-02-15T21:31:08.194Z,94.10
2018-02-15T21:33:34.607Z,94.10
2018-02-15T21:38:58.535Z,93.90
2018-02-15T21:41:25.789Z,93.90
2018-02-15T21:43:53.094Z,94.00
2018-02-15T21:46:19.605Z,93.90
2018-02-15T21:48:46.145Z,93.90
2018-02-15T21:51:12.650Z,93.90
2018-02-15T21:53:39.917Z,93.80
2018-02-15T21:56:07.180Z,93.80
2018-02-15T21:58:33.737Z,93.80
2018-02-15T22:01:00.255Z,93.70
2018-02-15T22:03:26.747Z,93.70
2018-02-15T22:05:53.306Z,93.70
2018-02-15T22:08:19.832Z,93.80
2018-02-15T22:10:46.313Z,93.80
2018-02-15T22:13:12.892Z,93.80
2018-02-15T22:15:39.414Z,93.90
2018-02-15T22:18:05.946Z,93.80
2018-02-15T22:20:33.029Z,93.80
2018-02-15T22:23:00.371Z,93.80
2018-02-15T22:25:26.966Z,93.70
2018-02-15T22:27:53.560Z,93.70
2018-02-15T22:30:20.135Z,93.70
2018-02-15T22:32:46.673Z,93.60
2018-02-15T22:35:13.315Z,93.40
2018-02-15T22:37:39.863Z,93.30
2018-02-15T22:40:06.379Z,93.30
2018-02-15T22:42:33.805Z,93.50
2018-02-15T22:45:00.286Z,93.10
2018-02-15T22:47:26.797Z,93.00
2018-02-15T22:49:53.337Z,92.90
2018-02-15T22:52:19.857Z,92.80
2018-02-15T22:54:46.370Z,92.80
2018-02-15T22:57:12.905Z,92.60
2018-02-15T22:59:39.402Z,92.50
2018-02-15T23:02:05.948Z,92.50
2018-02-15T23:04:32.469Z,92.40
2018-02-15T23:06:59.021Z,92.50
2018-02-15T23:09:25.532Z,92.40
2018-02-15T23:11:52.104Z,92.40
2018-02-15T23:14:18.618Z,92.40
2018-02-15T23:16:45.105Z,92.40
2018-02-15T23:19:12.389Z,92.70
2018-02-15T23:21:38.928Z,92.70
2018-02-15T23:24:05.538Z,92.70
2018-02-15T23:26:32.768Z,92.60
2018-02-15T23:28:59.296Z,92.60
2018-02-15T23:31:25.793Z,92.50
2018-02-15T23:33:52.326Z,92.40
2018-02-15T23:36:18.981Z,92.40
2018-02-15T23:38:45.510Z,92.20
2018-02-15T23:41:11.996Z,92.20
2018-02-15T23:43:38.524Z,92.10
2018-02-15T23:46:05.017Z,92.10
2018-02-15T23:48:31.525Z,92.10
2018-02-15T23:50:58.780Z,92.50
2018-02-15T23:53:26.061Z,92.50
2018-02-15T23:55:52.557Z,92.40
2018-02-15T23:58:19.822Z,92.80
